Time;durP1;ratioP1;P1;durP2;ratioP2;P2;SDS_P1;SDS_P2;PMS_P1;PMS_P2;Temp;Humidity;BMP_temperature;BMP_pressure;BME280_temperature;BME280_humidity;BME280_pressure;Samples;Min_cycle;Max_cycle;Signal;HPM_P1;HPM_P2
2023/10/13 00:01:58;;;;;;;;;;;;;;;;;;5053044;28;20442;-73
2023/10/13 00:04:24;;;;;;;;;;;;;;;;;;5053054;28;19993;-69
2023/10/13 00:06:50;;;;;;;;;;;;;;;;;;5053066;28;20002;-69
2023/10/13 00:09:16;;;;;;;;;;;;;;;;;;5053220;28;19997;-70
2023/10/13 00:11:46;;;;;;;;;;;;;;;;;;5053153;28;20037;-68
2023/10/13 00:14:15;;;;;;;;;;;;;;;;;;5052049;28;19989;-69
2023/10/13 00:16:41;;;;;;;;;;;;;;;;;;5052927;28;20014;-69
2023/10/13 00:19:09;;;;;;;;;;;;;;;;;;5052782;28;19996;-70
2023/10/13 00:21:36;;;;;;;;;;;;;;;;;;5052868;28;19985;-68
2023/10/13 00:24:05;;;;;;;;;;;;;;;;;;5051431;28;19994;-67
2023/10/13 00:26:35;;;;;;;;;;;;;;;;;;5052731;28;20055;-66
2023/10/13 00:31:36;;;;;;;;;;;;;;;;;;5052570;28;20036;-65
2023/10/13 00:34:10;;;;;;;;;;;;;;;;;;5052142;28;19986;-67
2023/10/13 00:36:36;;;;;;;;;;;;;;;;;;5051070;28;20036;-64
2023/10/13 00:39:07;;;;;;;;;;;;;;;;;;5051205;28;20442;-66
2023/10/13 00:44:42;;;;;;;;;;;;;;;;;;5050423;28;19986;-68
2023/10/13 00:47:09;;;;;;;;;;;;;;;;;;5052169;28;20461;-72
2023/10/13 00:49:39;;;;;;;;;;;;;;;;;;5052287;28;19986;-70
2023/10/13 00:52:05;;;;;;;;;;;;;;;;;;5052286;28;20017;-70
2023/10/13 00:54:31;;;;;;;;;;;;;;;;;;5051945;28;20025;-70
2023/10/13 00:57:42;;;;;;;;;;;;;;;;;;5051986;28;20017;-70
2023/10/13 00:59:47;;;;;;;;;;;;;;;;;;5051427;28;19994;-67
2023/10/13 01:04:57;;;;;;;;;;;;;;;;;;5052015;28;20048;-69
2023/10/13 01:07:24;;;;;;;;;;;;;;;;;;5051617;28;20005;-69
2023/10/13 01:09:50;;;;;;;;;;;;;;;;;;5051807;28;20354;-68
2023/10/13 01:12:16;;;;;;;;;;;;;;;;;;5051842;28;19982;-66
2023/10/13 01:14:44;;;;;;;;;;;;;;;;;;5051893;28;20083;-67
2023/10/13 01:17:10;;;;;;;;;;;;;;;;;;5051611;28;20017;-65
2023/10/13 01:19:38;;;;;;;;;;;;;;;;;;5051471;28;19985;-65
2023/10/13 01:22:06;;;;;;;;;;;;;;;;;;5051572;28;19982;-65
2023/10/13 01:24:34;;;;;;;;;;;;;;;;;;5051733;28;20044;-66
2023/10/13 01:27:14;;;;;;;;;;;;;;;;;;5051253;28;19986;-66
2023/10/13 01:29:40;;;;;;;;;;;;;;;;;;5051467;28;20449;-67
2023/10/13 01:32:09;;;;;;;;;;;;;;;;;;5051536;28;20032;-67
2023/10/13 01:34:37;;;;;;;;;;;;;;;;;;5051526;28;20089;-69
2023/10/13 01:37:06;;;;;;;;;;;;;;;;;;5051604;28;20116;-69
2023/10/13 01:39:32;;;;;;;;;;;;;;;;;;5051458;28;20522;-68
2023/10/13 01:41:57;;;;;;;;;;;;;;;;;;5051606;28;20017;-68
2023/10/13 01:44:23;;;;;;;;;;;;;;;;;;5051480;28;19988;-67
2023/10/13 01:46:51;;;;;;;;;;;;;;;;;;5051130;28;20121;-67
2023/10/13 01:49:19;;;;;;;;;;;;;;;;;;5050660;28;20319;-68
2023/10/13 01:51:48;;;;;;;;;;;;;;;;;;5051378;28;19990;-67
2023/10/13 01:54:15;;;;;;;;;;;;;;;;;;5051269;28;20040;-68
2023/10/13 01:56:44;;;;;;;;;;;;;;;;;;5051306;28;20470;-70
2023/10/13 01:59:10;;;;;;;;;;;;;;;;;;5051121;28;19986;-70
2023/10/13 02:01:36;;;;;;;;;;;;;;;;;;5051291;28;20072;-71
2023/10/13 02:04:06;;;;;;;;;;;;;;;;;;5051141;28;19986;-73
2023/10/13 02:06:32;;;;;;;;;;;;;;;;;;5049887;28;20068;-73
2023/10/13 02:09:03;;;;;;;;;;;;;;;;;;5051371;28;19986;-74
2023/10/13 02:11:30;;;;;;;;;;;;;;;;;;5051365;28;19986;-73
2023/10/13 02:13:57;;;;;;;;;;;;;;;;;;5051199;28;19982;-73
2023/10/13 02:16:25;;;;;;;;;;;;;;;;;;5051148;28;20016;-73
2023/10/13 02:18:51;;;;;;;;;;;;;;;;;;5051330;28;19986;-73
2023/10/13 02:21:17;;;;;;;;;;;;;;;;;;5050815;28;20043;-74
2023/10/13 02:23:45;;;;;;;;;;;;;;;;;;5051059;28;20450;-73
2023/10/13 02:26:12;;;;;;;;;;;;;;;;;;5050851;28;20000;-72
2023/10/13 02:28:38;;;;;;;;;;;;;;;;;;5050828;28;19990;-72
2023/10/13 02:31:04;;;;;;;;;;;;;;;;;;5050872;28;19993;-71
2023/10/13 02:33:30;;;;;;;;;;;;;;;;;;5050856;28;19988;-71
2023/10/13 02:35:56;;;;;;;;;;;;;;;;;;5050767;28;20497;-71
2023/10/13 02:41:06;;;;;;;;;;;;;;;;;;5054699;28;20028;-71
2023/10/13 02:43:33;;;;;;;;;;;;;;;;;;5054433;28;19986;-70
2023/10/13 02:45:59;;;;;;;;;;;;;;;;;;5054495;28;20044;-69
2023/10/13 02:48:26;;;;;;;;;;;;;;;;;;5054382;28;20508;-69
2023/10/13 02:50:54;;;;;;;;;;;;;;;;;;5054337;28;20027;-69
2023/10/13 02:53:20;;;;;;;;;;;;;;;;;;5054264;28;20025;-69
2023/10/13 02:55:46;;;;;;;;;;;;;;;;;;5054112;28;20057;-68
2023/10/13 02:58:14;;;;;;;;;;;;;;;;;;5054316;28;19982;-69
2023/10/13 03:00:41;;;;;;;;;;;;;;;;;;5054199;28;19996;-68
2023/10/13 03:03:07;;;;;;;;;;;;;;;;;;5053969;28;19989;-68
2023/10/13 03:05:35;;;;;;;;;;;;;;;;;;5054016;28;20002;-69
2023/10/13 03:08:04;;;;;;;;;;;;;;;;;;5053970;28;19993;-69
2023/10/13 03:10:30;;;;;;;;;;;;;;;;;;5053997;28;19992;-67
2023/10/13 03:12:56;;;;;;;;;;;;;;;;;;5052658;28;19986;-67
2023/10/13 03:15:29;;;;;;;;;;;;;;;;;;5053852;28;20489;-68
2023/10/13 03:17:58;;;;;;;;;;;;;;;;;;5053950;28;19986;-68
2023/10/13 03:20:31;;;;;;;;;;;;;;;;;;5053769;28;20005;-68
2023/10/13 03:22:57;;;;;;;;;;;;;;;;;;5053933;28;19993;-68
2023/10/13 03:25:29;;;;;;;;;;;;;;;;;;5053716;28;19985;-68
2023/10/13 03:30:23;;;;;;;;;;;;;;;;;;5053606;28;19988;-68
2023/10/13 03:32:54;;;;;;;;;;;;;;;;;;5053753;28;20369;-68
2023/10/13 03:35:37;;;;;;;;;;;;;;;;;;5053214;28;20051;-68
2023/10/13 03:38:03;;;;;;;;;;;;;;;;;;5053718;28;20064;-67
2023/10/13 03:43:04;;;;;;;;;;;;;;;;;;5053421;28;20027;-68
2023/10/13 03:45:36;;;;;;;;;;;;;;;;;;5052891;28;20020;-68
2023/10/13 03:48:08;;;;;;;;;;;;;;;;;;5053306;28;19986;-67
2023/10/13 03:50:36;;;;;;;;;;;;;;;;;;5052990;28;20552;-67
2023/10/13 03:53:02;;;;;;;;;;;;;;;;;;5053204;28;19981;-67
2023/10/13 03:55:34;;;;;;;;;;;;;;;;;;5053076;28;20041;-68
2023/10/13 03:58:00;;;;;;;;;;;;;;;;;;5052864;28;20483;-67
2023/10/13 04:00:29;;;;;;;;;;;;;;;;;;5053348;28;19994;-66
2023/10/13 04:03:07;;;;;;;;;;;;;;;;;;5053177;28;19986;-67
2023/10/13 04:11:59;;;;;;;;;;;;;;;;;;5050072;28;19997;-66
2023/10/13 04:16:54;;;;;;;;;;;;;;;;;;5052821;28;20012;-66
2023/10/13 04:19:22;;;;;;;;;;;;;;;;;;5052831;28;19986;-66
2023/10/13 04:21:58;;;;;;;;;;;;;;;;;;5049807;28;20118;-65
2023/10/13 04:25:00;;;;;;;;;;;;;;;;;;5051259;28;20084;-65
2023/10/13 04:27:53;;;;;;;;;;;;;;;;;;5052217;28;19985;-65
2023/10/13 04:30:27;;;;;;;;;;;;;;;;;;5051992;28;20453;-67
2023/10/13 04:33:15;;;;;;;;;;;;;;;;;;5052339;28;20004;-66
2023/10/13 04:35:47;;;;;;;;;;;;;;;;;;5051940;28;20016;-67
2023/10/13 04:38:20;;;;;;;;;;;;;;;;;;5052140;28;20004;-66
2023/10/13 04:40:58;;;;;;;;;;;;;;;;;;5052062;28;20488;-66
2023/10/13 04:43:55;;;;;;;;;;;;;;;;;;5051052;28;19989;-66
2023/10/13 04:46:36;;;;;;;;;;;;;;;;;;5051281;28;20033;-66
2023/10/13 04:49:09;;;;;;;;;;;;;;;;;;5051865;28;19982;-66
2023/10/13 04:51:58;;;;;;;;;;;;;;;;;;5051792;28;19996;-67
2023/10/13 04:54:34;;;;;;;;;;;;;;;;;;5050405;28;20324;-68
2023/10/13 04:57:25;;;;;;;;;;;;;;;;;;5050539;28;20507;-67
2023/10/13 06:29:35;;;;;;;;;;;;;;;;;;5048229;28;20461;-78
2023/10/13 06:32:10;;;;;;;;;;;;;;;;;;5049126;28;19993;-78
2023/10/13 06:35:22;;;;;;;;;;;;;;;;;;5050336;28;20088;-79
2023/10/13 06:37:26;;;;;;;;;;;;;;;;;;5041963;28;20382;-79
2023/10/13 06:39:56;;;;;;;;;;;;;;;;;;5045492;28;19993;-78
2023/10/13 06:42:22;;;;;;;;;;;;;;;;;;5054495;28;19982;-78
2023/10/13 06:44:48;;;;;;;;;;;;;;;;;;5052632;28;20013;-79
2023/10/13 06:47:14;;;;;;;;;;;;;;;;;;5054401;28;19993;-79
2023/10/13 06:49:39;;;;;;;;;;;;;;;;;;5052321;28;19990;-80
2023/10/13 06:52:06;;;;;;;;;;;;;;;;;;5051856;28;20084;-79
2023/10/13 06:54:34;;;;;;;;;;;;;;;;;;5054235;28;20008;-80
2023/10/13 06:57:03;;;;;;;;;;;;;;;;;;5054311;28;20010;-78
2023/10/13 06:59:32;;;;;;;;;;;;;;;;;;5052924;28;19985;-80
2023/10/13 07:02:03;;;;;;;;;;;;;;;;;;5054426;28;20346;-80
2023/10/13 07:04:29;;;;;;;;;;;;;;;;;;5054387;28;19981;-80
2023/10/13 07:06:56;;;;;;;;;;;;;;;;;;5038304;28;19986;-80
2023/10/13 07:12:01;;;;;;;;;;;;;;;;;;5034884;28;20036;-79
2023/10/13 07:14:27;;;;;;;;;;;;;;;;;;5054171;28;20033;-77
2023/10/13 07:16:53;;;;;;;;;;;;;;;;;;5043728;28;20068;-78
2023/10/13 07:19:19;;;;;;;;;;;;;;;;;;5033845;28;20324;-76
2023/10/13 07:21:45;;;;;;;;;;;;;;;;;;5034365;28;19986;-76
2023/10/13 07:24:11;;;;;;;;;;;;;;;;;;5031970;28;19986;-76
2023/10/13 07:26:42;;;;;;;;;;;;;;;;;;5033943;28;19986;-78
2023/10/13 07:29:09;;;;;;;;;;;;;;;;;;5033802;28;20021;-76
2023/10/13 07:31:34;;;;;;;;;;;;;;;;;;5033857;28;20093;-77
2023/10/13 07:34:10;;;;;;;;;;;;;;;;;;5033789;28;20113;-77
2023/10/13 07:36:39;;;;;;;;;;;;;;;;;;5033657;28;20009;-77
2023/10/13 07:39:21;;;;;;;;;;;;;;;;;;5033845;28;20072;-77
2023/10/13 07:41:51;;;;;;;;;;;;;;;;;;5033628;28;19989;-77
2023/10/13 07:44:19;;;;;;;;;;;;;;;;;;5033620;28;19993;-77
2023/10/13 07:46:48;;;;;;;;;;;;;;;;;;5032078;28;20375;-77
2023/10/13 07:49:15;;;;;;;;;;;;;;;;;;5033465;28;20028;-75
2023/10/13 07:51:49;;;;;;;;;;;;;;;;;;5033464;28;19998;-76
2023/10/13 07:54:21;;;;;;;;;;;;;;;;;;5033329;28;19986;-76
2023/10/13 07:56:47;;;;;;;;;;;;;;;;;;5033469;28;20091;-75
2023/10/13 07:59:14;;;;;;;;;;;;;;;;;;5033337;28;20030;-76
2023/10/13 08:01:45;;;;;;;;;;;;;;;;;;5033388;28;19982;-76
2023/10/13 08:04:11;;;;;;;;;;;;;;;;;;5033528;28;19990;-76
2023/10/13 08:06:37;;;;;;;;;;;;;;;;;;5032022;28;20079;-75
2023/10/13 08:09:29;;;;;;;;;;;;;;;;;;5033216;28;20046;-77
2023/10/13 08:11:55;;;;;;;;;;;;;;;;;;5033004;28;19986;-76
2023/10/13 08:14:28;;;;;;;;;;;;;;;;;;5033034;28;19982;-75
2023/10/13 08:19:44;;;;;;;;;;;;;;;;;;5033243;28;19983;-76
2023/10/13 08:37:28;;;;;;;;;;;;;;;;;;5032658;28;20121;-76
2023/10/13 08:47:53;;;;;;;;;;;;;;;;;;5032410;28;19993;-75
2023/10/13 08:50:47;;;;;;;;;;;;;;;;;;5032352;28;20033;-75
2023/10/13 08:58:59;;;;;;;;;;;;;;;;;;5032374;28;19993;-76
2023/10/13 09:01:34;;;;;;;;;;;;;;;;;;5032113;28;19986;-75
2023/10/13 09:04:20;;;;;;;;;;;;;;;;;;5032278;28;19986;-75
2023/10/13 09:07:03;;;;;;;;;;;;;;;;;;5032133;28;20124;-75
2023/10/13 09:09:35;;;;;;;;;;;;;;;;;;5030832;28;19996;-74
2023/10/13 09:12:10;;;;;;;;;;;;;;;;;;5031820;28;19989;-72
2023/10/13 09:14:38;;;;;;;;;;;;;;;;;;5031911;28;19985;-71
2023/10/13 09:17:34;;;;;;;;;;;;;;;;;;5031756;28;20057;-71
2023/10/13 09:19:55;;;;;;;;;;;;;;;;;;5031511;28;19986;-71
2023/10/13 09:22:28;;;;;;;;;;;;;;;;;;5031828;28;20035;-72
2023/10/13 09:24:53;;;;;;;;;;;;;;;;;;5031948;28;20023;-73
2023/10/13 09:27:19;;;;;;;;;;;;;;;;;;5031767;28;20423;-74
2023/10/13 09:29:52;;;;;;;;;;;;;;;;;;5031777;28;19994;-75
2023/10/13 09:32:21;;;;;;;;;;;;;;;;;;5031720;28;19986;-73
2023/10/13 09:34:48;;;;;;;;;;;;;;;;;;5031753;28;19982;-71
2023/10/13 09:37:20;;;;;;;;;;;;;;;;;;5031618;28;20059;-72
2023/10/13 09:39:48;;;;;;;;;;;;;;;;;;5031600;28;20448;-71
2023/10/13 09:42:18;;;;;;;;;;;;;;;;;;5031759;28;19990;-71
2023/10/13 09:44:49;;;;;;;;;;;;;;;;;;5030624;28;19997;-71
2023/10/13 09:47:18;;;;;;;;;;;;;;;;;;5031495;28;20001;-71
2023/10/13 09:49:51;;;;;;;;;;;;;;;;;;5031528;28;19987;-72
2023/10/13 09:52:20;;;;;;;;;;;;;;;;;;5031428;28;20637;-73
2023/10/13 09:54:48;;;;;;;;;;;;;;;;;;5030104;28;20080;-73
2023/10/13 09:57:17;;;;;;;;;;;;;;;;;;5031320;28;20014;-74
2023/10/13 09:59:47;;;;;;;;;;;;;;;;;;5030335;28;20080;-74
2023/10/13 10:02:18;;;;;;;;;;;;;;;;;;5031565;28;20077;-76
2023/10/13 10:04:51;;;;;;;;;;;;;;;;;;5031265;28;20055;-72
2023/10/13 10:07:19;;;;;;;;;;;;;;;;;;5031419;28;19994;-74
2023/10/13 10:09:45;;;;;;;;;;;;;;;;;;5031477;28;19988;-73
2023/10/13 10:12:11;;;;;;;;;;;;;;;;;;5031720;28;20400;-75
2023/10/13 10:14:37;;;;;;;;;;;;;;;;;;5031136;28;20514;-75
2023/10/13 10:17:03;;;;;;;;;;;;;;;;;;5031396;28;20017;-73
2023/10/13 10:19:30;;;;;;;;;;;;;;;;;;5031521;28;20044;-71
2023/10/13 10:21:56;;;;;;;;;;;;;;;;;;5031477;28;20012;-73
2023/10/13 10:24:33;;;;;;;;;;;;;;;;;;5031607;28;20438;-73
2023/10/13 10:26:59;;;;;;;;;;;;;;;;;;5031246;28;20044;-70
2023/10/13 10:29:25;;;;;;;;;;;;;;;;;;5031146;28;19982;-72
2023/10/13 10:31:51;;;;;;;;;;;;;;;;;;5031103;28;20358;-72
2023/10/13 10:34:21;;;;;;;;;;;;;;;;;;5031315;28;19993;-73
2023/10/13 10:36:48;;;;;;;;;;;;;;;;;;5030992;28;20516;-72
2023/10/13 10:39:15;;;;;;;;;;;;;;;;;;5030889;28;20346;-71
2023/10/13 10:42:02;;;;;;;;;;;;;;;;;;5031293;28;20368;-72
2023/10/13 10:44:36;;;;;;;;;;;;;;;;;;5030859;28;19986;-73
2023/10/13 10:47:02;;;;;;;;;;;;;;;;;;5030734;28;20553;-72
2023/10/13 10:49:28;;;;;;;;;;;;;;;;;;5031054;28;20089;-73
2023/10/13 10:51:57;;;;;;;;;;;;;;;;;;5030989;28;20340;-74
2023/10/13 10:54:30;;;;;;;;;;;;;;;;;;5031195;28;19993;-74
2023/10/13 10:56:55;;;;;;;;;;;;;;;;;;5030982;28;20010;-74
2023/10/13 10:59:25;;;;;;;;;;;;;;;;;;5033177;28;19986;-74
2023/10/13 11:01:50;;;;;;;;;;;;;;;;;;5034392;28;20435;-74
2023/10/13 11:06:48;;;;;;;;;;;;;;;;;;5034239;28;19998;-75
2023/10/13 11:11:52;;;;;;;;;;;;;;;;;;5034322;28;19985;-74
2023/10/13 11:14:22;;;;;;;;;;;;;;;;;;5034411;28;19993;-74
2023/10/13 11:16:50;;;;;;;;;;;;;;;;;;5034296;28;20107;-75
2023/10/13 11:19:16;;;;;;;;;;;;;;;;;;5034037;28;20309;-75
2023/10/13 11:21:42;;;;;;;;;;;;;;;;;;5034080;28;20113;-74
2023/10/13 11:24:11;;;;;;;;;;;;;;;;;;5034409;28;19990;-75
2023/10/13 11:26:49;;;;;;;;;;;;;;;;;;5033996;28;19990;-74
2023/10/13 11:29:18;;;;;;;;;;;;;;;;;;5033794;28;20025;-75
2023/10/13 11:31:44;;;;;;;;;;;;;;;;;;5032879;28;19986;-74
2023/10/13 11:34:11;;;;;;;;;;;;;;;;;;5033859;28;20093;-75
2023/10/13 11:36:37;;;;;;;;;;;;;;;;;;5033497;28;20045;-74
2023/10/13 11:39:07;;;;;;;;;;;;;;;;;;5033912;28;20033;-77
2023/10/13 11:41:45;;;;;;;;;;;;;;;;;;5032460;28;20063;-77
2023/10/13 11:44:23;;;;;;;;;;;;;;;;;;5033651;28;20040;-78
2023/10/13 11:46:55;;;;;;;;;;;;;;;;;;5033409;28;20021;-78
2023/10/13 11:52:02;;;;;;;;;;;;;;;;;;5033849;28;20022;-78
2023/10/13 11:54:27;;;;;;;;;;;;;;;;;;5034122;28;20076;-78
2023/10/13 11:56:58;;;;;;;;;;;;;;;;;;5036555;28;20541;-78
2023/10/13 11:59:27;;;;;;;;;;;;;;;;;;5043820;28;19993;-78
2023/10/13 12:04:51;;;;;;;;;;;;;;;;;;5049101;28;20008;-80
2023/10/13 12:07:19;;;;;;;;;;;;;;;;;;5052152;28;19993;-78
2023/10/13 12:12:20;;;;;;;;;;;;;;;;;;5053447;28;20350;-79
2023/10/13 12:14:52;;;;;;;;;;;;;;;;;;5050680;28;20390;-78
2023/10/13 12:17:24;;;;;;;;;;;;;;;;;;5033822;28;20064;-79
2023/10/13 12:19:51;;;;;;;;;;;;;;;;;;5032691;28;19986;-80
2023/10/13 12:22:25;;;;;;;;;;;;;;;;;;5032101;28;19990;-80
2023/10/13 12:24:53;;;;;;;;;;;;;;;;;;5033005;28;19983;-79
2023/10/13 12:27:19;;;;;;;;;;;;;;;;;;5033219;28;19986;-79
2023/10/13 12:29:46;;;;;;;;;;;;;;;;;;5034990;28;19983;-80
2023/10/13 12:32:12;;;;;;;;;;;;;;;;;;5050484;28;20042;-80
2023/10/13 12:54:19;;;;;;;;;;;;;;;;;;5033529;28;20343;-80
2023/10/13 12:56:45;;;;;;;;;;;;;;;;;;5031608;28;20540;-80
2023/10/13 12:59:14;;;;;;;;;;;;;;;;;;5031405;28;19991;-80
2023/10/13 13:01:43;;;;;;;;;;;;;;;;;;5032810;28;20089;-78
2023/10/13 13:04:12;;;;;;;;;;;;;;;;;;5044817;28;19986;-79
2023/10/13 13:06:39;;;;;;;;;;;;;;;;;;5032245;28;20383;-80
2023/10/13 13:09:09;;;;;;;;;;;;;;;;;;5041614;28;19985;-79
2023/10/13 13:11:39;;;;;;;;;;;;;;;;;;5041430;28;20089;-78
2023/10/13 13:14:07;;;;;;;;;;;;;;;;;;5036967;28;19981;-78
2023/10/13 13:16:33;;;;;;;;;;;;;;;;;;5032234;28;20010;-79
2023/10/13 13:19:02;;;;;;;;;;;;;;;;;;5031952;28;19993;-79
2023/10/13 13:21:28;;;;;;;;;;;;;;;;;;5031310;28;20236;-77
2023/10/13 13:23:54;;;;;;;;;;;;;;;;;;5038854;28;20076;-77
2023/10/13 13:26:20;;;;;;;;;;;;;;;;;;5047018;28;20093;-76
2023/10/13 13:28:50;;;;;;;;;;;;;;;;;;5031412;28;19992;-78
2023/10/13 13:31:16;;;;;;;;;;;;;;;;;;5051803;28;20012;-78
2023/10/13 13:33:45;;;;;;;;;;;;;;;;;;5051641;28;20434;-78
2023/10/13 13:36:15;;;;;;;;;;;;;;;;;;5051639;28;20013;-77
2023/10/13 13:38:41;;;;;;;;;;;;;;;;;;5052081;28;20277;-77
2023/10/13 13:41:09;;;;;;;;;;;;;;;;;;5042111;28;19994;-77
2023/10/13 13:43:38;;;;;;;;;;;;;;;;;;5039458;28;20036;-77
2023/10/13 13:46:08;;;;;;;;;;;;;;;;;;5048411;28;20044;-77
2023/10/13 13:48:34;;;;;;;;;;;;;;;;;;5031906;28;20192;-76
2023/10/13 13:51:04;;;;;;;;;;;;;;;;;;5031548;28;20171;-76
2023/10/13 13:53:32;;;;;;;;;;;;;;;;;;5032377;28;20446;-78
2023/10/13 13:55:58;;;;;;;;;;;;;;;;;;5031018;28;20010;-77
2023/10/13 13:58:25;;;;;;;;;;;;;;;;;;5031770;28;19990;-78
2023/10/13 14:00:51;;;;;;;;;;;;;;;;;;5041800;28;19992;-76
2023/10/13 14:03:32;;;;;;;;;;;;;;;;;;5042088;28;19990;-76
2023/10/13 14:05:58;;;;;;;;;;;;;;;;;;5032533;28;20043;-76
2023/10/13 14:08:25;;;;;;;;;;;;;;;;;;5034122;28;20001;-75
2023/10/13 14:16:20;;;;;;;;;;;;;;;;;;5042868;28;20041;-75
2023/10/13 14:18:48;;;;;;;;;;;;;;;;;;5039504;28;20120;-74
2023/10/13 14:21:16;;;;;;;;;;;;;;;;;;5049287;28;20465;-74
2023/10/13 14:23:42;;;;;;;;;;;;;;;;;;5050616;28;19985;-74
2023/10/13 14:26:09;;;;;;;;;;;;;;;;;;5042290;28;20461;-74
2023/10/13 14:28:35;;;;;;;;;;;;;;;;;;5031106;28;20108;-75
2023/10/13 14:31:01;;;;;;;;;;;;;;;;;;5031397;28;20026;-73
2023/10/13 14:33:26;;;;;;;;;;;;;;;;;;5039404;28;19990;-73
2023/10/13 14:35:53;;;;;;;;;;;;;;;;;;5035051;28;20013;-73
2023/10/13 14:38:19;;;;;;;;;;;;;;;;;;5053546;28;20004;-72
2023/10/13 14:40:45;;;;;;;;;;;;;;;;;;5054768;28;20362;-72
2023/10/13 14:43:11;;;;;;;;;;;;;;;;;;5054548;28;19986;-72
2023/10/13 14:45:37;;;;;;;;;;;;;;;;;;5049352;28;20021;-73
2023/10/13 14:48:05;;;;;;;;;;;;;;;;;;5044195;28;19989;-73
2023/10/13 14:50:31;;;;;;;;;;;;;;;;;;5035189;28;20025;-72
2023/10/13 14:52:57;;;;;;;;;;;;;;;;;;5035665;28;19985;-72
2023/10/13 14:55:37;;;;;;;;;;;;;;;;;;5035696;28;20346;-72
2023/10/13 14:58:04;;;;;;;;;;;;;;;;;;5034244;28;20402;-72
2023/10/13 15:00:31;;;;;;;;;;;;;;;;;;5042150;28;19997;-73
2023/10/13 15:03:01;;;;;;;;;;;;;;;;;;5037576;28;20044;-72
2023/10/13 15:05:29;;;;;;;;;;;;;;;;;;5035137;28;20006;-72
2023/10/13 15:07:55;;;;;;;;;;;;;;;;;;5033551;28;21024;-71
2023/10/13 15:10:24;;;;;;;;;;;;;;;;;;5034151;28;20053;-71
2023/10/13 15:12:50;;;;;;;;;;;;;;;;;;5034310;28;19993;-71
2023/10/13 15:15:16;;;;;;;;;;;;;;;;;;5034091;28;19982;-72
2023/10/13 15:17:42;;;;;;;;;;;;;;;;;;5034053;28;20017;-71
2023/10/13 15:20:09;;;;;;;;;;;;;;;;;;5047993;28;19989;-70
2023/10/13 15:22:36;;;;;;;;;;;;;;;;;;5051675;28;19994;-70
2023/10/13 15:25:20;;;;;;;;;;;;;;;;;;5034836;28;20093;-71
2023/10/13 15:27:55;;;;;;;;;;;;;;;;;;5042951;28;20331;-71
2023/10/13 15:30:23;;;;;;;;;;;;;;;;;;5052484;28;20366;-70
2023/10/13 15:32:50;;;;;;;;;;;;;;;;;;5052856;28;20446;-69
2023/10/13 15:35:16;;;;;;;;;;;;;;;;;;5038539;28;20031;-70
2023/10/13 15:37:47;;;;;;;;;;;;;;;;;;5035118;28;20010;-70
2023/10/13 15:40:15;;;;;;;;;;;;;;;;;;5034090;28;19990;-70
2023/10/13 15:42:41;;;;;;;;;;;;;;;;;;5033836;28;20101;-70
2023/10/13 15:45:16;;;;;;;;;;;;;;;;;;5032924;28;20025;-70
2023/10/13 15:47:45;;;;;;;;;;;;;;;;;;5039939;28;20031;-68
2023/10/13 15:50:15;;;;;;;;;;;;;;;;;;5053705;28;19986;-69
2023/10/13 15:52:45;;;;;;;;;;;;;;;;;;5050386;28;19996;-69
2023/10/13 15:55:13;;;;;;;;;;;;;;;;;;5038563;28;20516;-69
2023/10/13 15:57:39;;;;;;;;;;;;;;;;;;5044696;28;20044;-71
2023/10/13 16:00:22;;;;;;;;;;;;;;;;;;5050741;28;20378;-69
2023/10/13 16:02:50;;;;;;;;;;;;;;;;;;5035028;28;20069;-70
2023/10/13 16:05:16;;;;;;;;;;;;;;;;;;5042034;28;20146;-69
2023/10/13 16:07:42;;;;;;;;;;;;;;;;;;5047254;28;20087;-68
2023/10/13 16:10:11;;;;;;;;;;;;;;;;;;5053021;28;19985;-68
2023/10/13 16:12:37;;;;;;;;;;;;;;;;;;5048766;28;19986;-69
2023/10/13 16:15:05;;;;;;;;;;;;;;;;;;5033647;28;20433;-70
2023/10/13 16:17:31;;;;;;;;;;;;;;;;;;5047444;28;20021;-70
2023/10/13 16:19:57;;;;;;;;;;;;;;;;;;5033138;28;19986;-70
2023/10/13 16:22:23;;;;;;;;;;;;;;;;;;5033104;28;20397;-70
2023/10/13 16:24:49;;;;;;;;;;;;;;;;;;5032614;28;20382;-69
2023/10/13 16:27:15;;;;;;;;;;;;;;;;;;5045159;28;20115;-69
2023/10/13 16:29:44;;;;;;;;;;;;;;;;;;5041641;28;20040;-70
2023/10/13 16:32:10;;;;;;;;;;;;;;;;;;5051367;28;20497;-70
2023/10/13 16:34:37;;;;;;;;;;;;;;;;;;5041386;28;19994;-69
2023/10/13 16:37:05;;;;;;;;;;;;;;;;;;5032896;28;20010;-69
2023/10/13 16:39:31;;;;;;;;;;;;;;;;;;5037270;28;19992;-69
2023/10/13 16:41:57;;;;;;;;;;;;;;;;;;5052476;28;20040;-68
2023/10/13 16:44:26;;;;;;;;;;;;;;;;;;5052444;28;20013;-70
2023/10/13 16:46:59;;;;;;;;;;;;;;;;;;5051929;28;20029;-69
2023/10/13 16:49:28;;;;;;;;;;;;;;;;;;5050814;28;20012;-70
2023/10/13 16:51:54;;;;;;;;;;;;;;;;;;5055403;28;19981;-71
2023/10/13 16:54:21;;;;;;;;;;;;;;;;;;5029940;28;20010;-68
2023/10/13 16:56:47;;;;;;;;;;;;;;;;;;5037068;28;20006;-70
2023/10/13 16:59:14;;;;;;;;;;;;;;;;;;5051617;28;20081;-68
2023/10/13 17:01:40;;;;;;;;;;;;;;;;;;5034498;28;20121;-69
2023/10/13 17:04:06;;;;;;;;;;;;;;;;;;5045859;28;19986;-69
2023/10/13 17:06:32;;;;;;;;;;;;;;;;;;5051434;28;20006;-69
2023/10/13 17:08:58;;;;;;;;;;;;;;;;;;5068582;28;20365;-69
2023/10/13 17:11:24;;;;;;;;;;;;;;;;;;5032214;28;19993;-69
2023/10/13 17:13:50;;;;;;;;;;;;;;;;;;5031993;28;19994;-70
2023/10/13 17:16:19;;;;;;;;;;;;;;;;;;5042304;28;20087;-69
2023/10/13 17:18:47;;;;;;;;;;;;;;;;;;5051300;28;20055;-69
2023/10/13 17:21:13;;;;;;;;;;;;;;;;;;5050722;28;20370;-71
2023/10/13 17:23:39;;;;;;;;;;;;;;;;;;5034721;28;20446;-69
2023/10/13 17:26:06;;;;;;;;;;;;;;;;;;5033436;28;19986;-72
2023/10/13 17:28:32;;;;;;;;;;;;;;;;;;5031908;28;19986;-78
2023/10/13 17:30:59;;;;;;;;;;;;;;;;;;5034522;28;19994;-79
2023/10/13 17:33:28;;;;;;;;;;;;;;;;;;5051846;28;19990;-77
2023/10/13 17:35:54;;;;;;;;;;;;;;;;;;5051775;28;20006;-77
2023/10/13 17:38:20;;;;;;;;;;;;;;;;;;5048305;28;20526;-80
2023/10/13 17:40:47;;;;;;;;;;;;;;;;;;5047920;28;19986;-75
2023/10/13 17:43:13;;;;;;;;;;;;;;;;;;5034225;28;20034;-75
2023/10/13 17:45:39;;;;;;;;;;;;;;;;;;5031179;28;20057;-74
2023/10/13 17:48:08;;;;;;;;;;;;;;;;;;5046979;28;20176;-75
2023/10/13 17:50:34;;;;;;;;;;;;;;;;;;5030447;28;20065;-74
2023/10/13 17:53:04;;;;;;;;;;;;;;;;;;5032050;28;19997;-73
2023/10/13 17:55:30;;;;;;;;;;;;;;;;;;5051587;28;19997;-72
2023/10/13 17:57:58;;;;;;;;;;;;;;;;;;5051796;28;19994;-72
2023/10/13 18:00:24;;;;;;;;;;;;;;;;;;5050143;28;19986;-72
2023/10/13 18:02:56;;;;;;;;;;;;;;;;;;5050213;28;20009;-72
2023/10/13 18:05:22;;;;;;;;;;;;;;;;;;5051278;28;20482;-73
2023/10/13 18:07:48;;;;;;;;;;;;;;;;;;5053056;28;19986;-70
2023/10/13 18:10:14;;;;;;;;;;;;;;;;;;5054485;28;20039;-71
2023/10/13 18:12:40;;;;;;;;;;;;;;;;;;5054407;28;20029;-70
2023/10/13 18:15:09;;;;;;;;;;;;;;;;;;5049665;28;20339;-70
2023/10/13 18:17:36;;;;;;;;;;;;;;;;;;5069900;28;20022;-71
2023/10/13 18:20:03;;;;;;;;;;;;;;;;;;5063039;28;20415;-70
2023/10/13 18:22:29;;;;;;;;;;;;;;;;;;5063562;28;20466;-69
2023/10/13 18:24:55;;;;;;;;;;;;;;;;;;5051581;28;19992;-68
2023/10/13 18:27:21;;;;;;;;;;;;;;;;;;5054078;28;19990;-68
2023/10/13 18:29:47;;;;;;;;;;;;;;;;;;5054989;28;20036;-67
2023/10/13 18:32:18;;;;;;;;;;;;;;;;;;5054801;28;19989;-69
2023/10/13 18:34:47;;;;;;;;;;;;;;;;;;5054764;28;19986;-69
2023/10/13 18:37:13;;;;;;;;;;;;;;;;;;5054634;28;20063;-67
2023/10/13 18:39:40;;;;;;;;;;;;;;;;;;5054566;28;19982;-68
2023/10/13 18:42:06;;;;;;;;;;;;;;;;;;5053538;28;19986;-67
2023/10/13 18:44:33;;;;;;;;;;;;;;;;;;5054619;28;20029;-69
2023/10/13 18:47:01;;;;;;;;;;;;;;;;;;5054209;28;20013;-71
2023/10/13 18:49:27;;;;;;;;;;;;;;;;;;5054462;28;20438;-74
2023/10/13 18:51:55;;;;;;;;;;;;;;;;;;5054132;28;19986;-73
2023/10/13 18:54:34;;;;;;;;;;;;;;;;;;5054359;28;19986;-73
2023/10/13 18:57:02;;;;;;;;;;;;;;;;;;5054887;28;19990;-74
2023/10/13 18:59:28;;;;;;;;;;;;;;;;;;5053062;28;20460;-73
2023/10/13 19:01:56;;;;;;;;;;;;;;;;;;5054440;28;19986;-76
2023/10/13 19:04:22;;;;;;;;;;;;;;;;;;5054079;28;20465;-77
2023/10/13 19:06:48;;;;;;;;;;;;;;;;;;5064429;28;20342;-78
2023/10/13 19:09:24;;;;;;;;;;;;;;;;;;5054187;28;20080;-77
2023/10/13 19:11:50;;;;;;;;;;;;;;;;;;5054318;28;19989;-78
2023/10/13 19:14:16;;;;;;;;;;;;;;;;;;5054534;28;19986;-77
2023/10/13 19:16:46;;;;;;;;;;;;;;;;;;5053776;28;20139;-77
2023/10/13 19:19:11;;;;;;;;;;;;;;;;;;5055151;28;19990;-77
2023/10/13 19:21:37;;;;;;;;;;;;;;;;;;5054279;28;19988;-79
2023/10/13 19:24:04;;;;;;;;;;;;;;;;;;5052631;28;19986;-77
2023/10/13 19:26:30;;;;;;;;;;;;;;;;;;5053896;28;20021;-77
2023/10/13 19:28:56;;;;;;;;;;;;;;;;;;5054623;28;19989;-80
2023/10/13 19:31:24;;;;;;;;;;;;;;;;;;5069910;28;20339;-79
2023/10/13 19:33:50;;;;;;;;;;;;;;;;;;5074646;28;20076;-80
2023/10/13 19:36:17;;;;;;;;;;;;;;;;;;5076354;28;20351;-87
2023/10/13 19:38:43;;;;;;;;;;;;;;;;;;5080761;28;19996;-84
2023/10/13 19:41:09;;;;;;;;;;;;;;;;;;5083504;28;19986;-84
2023/10/13 19:43:35;;;;;;;;;;;;;;;;;;5086364;28;20012;-89
2023/10/13 19:46:01;;;;;;;;;;;;;;;;;;5078260;28;20484;-79
2023/10/13 19:48:27;;;;;;;;;;;;;;;;;;5073400;28;19989;-77
2023/10/13 19:50:58;;;;;;;;;;;;;;;;;;5053382;28;20013;-80
2023/10/13 19:53:26;;;;;;;;;;;;;;;;;;5054740;28;19990;-81
2023/10/13 19:55:54;;;;;;;;;;;;;;;;;;5053757;28;19982;-77
2023/10/13 19:58:20;;;;;;;;;;;;;;;;;;5053352;28;19989;-77
2023/10/13 20:00:45;;;;;;;;;;;;;;;;;;5053179;28;19982;-77
2023/10/13 20:03:13;;;;;;;;;;;;;;;;;;5053253;28;19998;-79
2023/10/13 20:05:39;;;;;;;;;;;;;;;;;;5051669;28;20073;-79